【ウィンドシア】


「ウィンドシア」によるTwitter検索の結果から選別して表示しています。)



どこかで天気が悪くなると呟く何か @metbot_jp2017-10-14 08:11:24
RCSS/TSA:台北松山(台湾)
ウィンドシア
132301Z 10015KT 2000 SHRA SCT005 BKN020 BKN035 26/25 Q1006 WS R10 NOSIG RMK A2971

どこかで天気が悪くなると呟く何か @metbot_jp 2017-10-14 03:41:21
RCTP/TPE:台湾桃園(台湾)
ウィンドシア
131830Z 04026G37KT 4000 SHRA FEW003 BKN006 BKN010 25/25 Q1004 WS ALL RWY NOSIG RMK A2965

どこかで天気が悪くなると呟く何か @metbot_jp 2017-10-14 02:11:33
RCTP/TPE:台湾桃園(台湾)
ウィンドシア
131700Z 06023KT 2500 SHRA FEW003 BKN006 BKN010 25/25 Q1005 WS ALL RWY NOSIG RMK A2969 RA AMT 20.2MM

どこかで天気が悪くなると呟く何か @metbot_jp 2017-10-14 01:46:33
RCSS/TSA:台北松山(台湾)
ウィンドシア
131639Z 08018KT 4000 SHRA FEW002 BKN015 OVC035 25/25 Q1005 WS R10 NOSIG RMK A2969

どこかで天気が悪くなると呟く何か @metbot_jp 2017-10-14 00:41:38
RCSS/TSA:台北松山(台湾)
ウィンドシア
131530Z 07013KT 350V100 4000 SHRA SCT006 BKN018 OVC040 25/24 Q1005 WS R10 NOSIG RMK A2969

どこかで天気が悪くなると呟く何か @metbot_jp 2017-10-14 00:41:37
RCTP/TPE:台湾桃園(台湾)
ウィンドシア
131534Z 04023G34KT 3500 -SHRA FEW004 BKN006 BKN010 24/24 Q1006 WS ALL RWY NOSIG RMK A2971
131530Z 04024KT 5000 -SH…

どこかで天気が悪くなると呟く何か @metbot_jp 2017-10-13 23:41:35
RCTP/TPE:台湾桃園(台湾)
ウィンドシア
131430Z 04036G47KT 3500 SHRA FEW008 BKN012 BKN017 24/24 Q1006 WS ALL RWY NOSIG RMK A2973

どこかで天気が悪くなると呟く何か @metbot_jp 2017-10-13 23:41:34
RCSS/TSA:台北松山(台湾)
ウィンドシア
131430Z 06015G25KT 020V100 4500 SHRA SCT006 BKN018 OVC040 26/24 Q1006 WS R10 NOSIG RMK A2972

どこかで天気が悪くなると呟く何か @metbot_jp 2017-10-13 22:16:32
RCTP/TPE:台湾桃園(台湾)
ウィンドシア
131300Z 04030G42KT 4000 -SHRA SCT006 BKN008 BKN015 24/24 Q1006 RESHRA WS ALL RWY NOSIG RMK A2972 RA AMT 8.2MM

どこかで天気が悪くなると呟く何か @metbot_jp 2017-10-13 22:16:31
RCSS/TSA:台北松山(台湾)
ウィンドシア
131300Z 08013KT 050V120 3400 SHRA SCT006 BKN016 OVC040 25/24 Q1006 WS R10 NOSIG RMK A2973 RA AMT 5.6MM

どこかで天気が悪くなると呟く何か @metbot_jp 2017-10-13 21:11:30
RCTP/TPE:台湾桃園(台湾)
ウィンドシア
131200Z 04029KT 3500 SHRA FEW005 BKN007 BKN015 24/24 Q1007 WS ALL RWY NOSIG RMK A2974 RA AMT 3.8MM

どこかで天気が悪くなると呟く何か @metbot_jp 2017-10-13 21:11:29
RCSS/TSA:台北松山(台湾)
ウィンドシア
131200Z 07012G23KT 030V100 4000 -RA FEW008 BKN020 OVC045 25/24 Q1006 WS R10 NOSIG RMK A2973 RA AMT 2.6MM

どこかで天気が悪くなると呟く何か @metbot_jp 2017-10-13 20:11:19
RCTP/TPE:台湾桃園(台湾)
ウィンドシア
131100Z 04029G40KT 5000 -SHRA FEW005 BKN012 BKN018 25/24 Q1006 WS ALL RWY NOSIG RMK A2972 RA AMT 0.4MM

どこかで天気が悪くなると呟く何か @metbot_jp 2017-10-13 19:56:20
RCSS/TSA:台北松山(台湾)
ウィンドシア
131049Z 07014G24KT 010V100 4000 -RA FEW006 BKN018 OVC050 26/24 Q1006 WS R10 NOSIG RMK A2972

どこかで天気が悪くなると呟く何か @metbot_jp 2017-10-13 19:36:12
ROAH/OKA:那覇(日本・沖縄本島)
ウィンドシア
131025Z 06013G29KT 030V100 9999 +SHRA BKN015 FEW200TCU BKN100 28/25 Q1009 WS R36 RMK 5CU015 2TCU200 6AC100 A298…

どこかで天気が悪くなると呟く何か @metbot_jp 2017-10-13 18:41:27
RCSS/TSA:台北松山(台湾)
ウィンドシア
130930Z 06012G27KT 360V110 7000 -RA FEW006 BKN018 OVC045 26/24 Q1005 WS R10 NOSIG RMK A2970

どこかで天気が悪くなると呟く何か @metbot_jp 2017-10-13 18:41:26
RCTP/TPE:台湾桃園(台湾)
ウィンドシア
130930Z 04030G48KT 4000 -SHRA FEW005 BKN008 BKN014 25/24 Q1005 WS ALL RWY NOSIG RMK A2969

どこかで天気が悪くなると呟く何か @metbot_jp 2017-10-13 17:11:27
RCSS/TSA:台北松山(台湾)
ウィンドシア
130800Z 08014G27KT 4000 -RA FEW006 BKN018 BKN045 26/24 Q1006 WS R10 NOSIG RMK A2971 RA AMT 0.60MM

どこかで天気が悪くなると呟く何か @metbot_jp 2017-10-13 17:11:27
RCTP/TPE:台湾桃園(台湾)
ウィンドシア
130800Z 05031G41KT 2500 SHRA FEW005 BKN008 BKN014 24/24 Q1006 WS ALL RWY NOSIG RMK A2972 RA AMT 17.4MM

どこかで天気が悪くなると呟く何か @metbot_jp 2017-10-13 16:11:24
RCSS/TSA:台北松山(台湾)
ウィンドシア
130700Z 10015KT 070V130 4000 -RA FEW008 BKN016 BKN030 24/24 Q1006 WS R10 NOSIG RMK A2971 RA AMT 10.60MM

どこかで天気が悪くなると呟く何か @metbot_jp 2017-10-13 16:11:23
RCTP/TPE:台湾桃園(台湾)
ウィンドシア
130700Z 04029KT 3500 -SHRA FEW005 BKN008 BKN015 24/24 Q1006 RESHRA WS ALL RWY NOSIG RMK A2972 RA AMT 7.6MM

どこかで天気が悪くなると呟く何か @metbot_jp 2017-10-13 15:11:21
RCTP/TPE:台湾桃園(台湾)
ウィンドシア
130600Z 04031G44KT 2500 -SHRA FEW005 BKN008 BKN014 24/23 Q1006 WS ALL RWY NOSIG RMK A2973 RA AMT 7.2MM

どこかで天気が悪くなると呟く何か @metbot_jp 2017-10-13 15:11:20
RCSS/TSA:台北松山(台湾)
ウィンドシア
130600Z 09019G31KT 050V110 2800 RA FEW006 BKN014 OVC040 25/24 Q1007 WS R10 TEMPO 5000 RMK A2974 RA AMT 2.60MM

どこかで天気が悪くなると呟く何か @metbot_jp 2017-10-13 14:11:21
RCTP/TPE:台湾桃園(台湾)
ウィンドシア
130500Z 04027G37KT 1500 SHRA SCT008 BKN010 BKN016 24/23 Q1007 WS ALL RWY NOSIG RMK A2975 RA AMT 7.8MM

どこかで天気が悪くなると呟く何か @metbot_jp 2017-10-13 14:11:20
RCSS/TSA:台北松山(台湾)
ウィンドシア
130500Z 08015G28KT 030V110 6000 -SHRA FEW008 BKN030 BKN050 26/24 Q1007 RESHRA WS R10 NOSIG RMK A2974 RA AMT 2.0MM

どこかで天気が悪くなると呟く何か @metbot_jp 2017-10-13 13:11:18
RCTP/TPE:台湾桃園(台湾)
ウィンドシア
130400Z 04026KT 2700 RA FEW008 BKN010 BKN018 24/23 Q1008 WS ALL RWY NOSIG RMK A2979 RA AMT 4.0MM

どこかで天気が悪くなると呟く何か @metbot_jp 2017-10-13 12:56:18
RCSS/TSA:台北松山(台湾)
ウィンドシア
130347Z 10016KT 060V120 2000 SHRA FEW008 BKN018 OVC030 25/24 Q1008 WS R10 NOSIG RMK A2979

どこかで天気が悪くなると呟く何か @metbot_jp 2017-10-13 12:11:17
RCTP/TPE:台湾桃園(台湾)
ウィンドシア
130300Z 05029KT 4000 -RA FEW006 BKN011 BKN022 24/23 Q1009 WS ALL RWY NOSIG RMK A2981 RA AMT 1.4MM

どこかで天気が悪くなると呟く何か @metbot_jp 2017-10-13 11:51:21
RCSS/TSA:台北松山(台湾)
ウィンドシア
130242Z 08017KT 3500 SHRA FEW008 BKN020 OVC032 25/23 Q1009 WS R10 NOSIG RMK A2982

どこかで天気が悪くなると呟く何か @metbot_jp 2017-10-13 11:11:14
RCTP/TPE:台湾桃園(台湾)
ウィンドシア
130200Z 05024KT 4000 -RA FEW006 BKN014 BKN022 24/23 Q1010 WS ALL RWY NOSIG RMK A2983 RA AMT 0.4MM

どこかで天気が悪くなると呟く何か @metbot_jp 2017-10-13 10:41:21
RCSS/TSA:台北松山(台湾)
ウィンドシア
130130Z 09018G30KT 4000 -RA BR FEW010 BKN022 BKN035 25/23 Q1010 WS R10 NOSIG RMK A2984

どこかで天気が悪くなると呟く何か @metbot_jp 2017-10-13 10:11:13
RCTP/TPE:台湾桃園(台湾)
ウィンドシア
130100Z 05023KT 5000 -RA FEW008 BKN010 BKN017 24/23 Q1010 WS ALL RWY NOSIG RMK A2984 RA AMT 1.2MM

どこかで天気が悪くなると呟く何か @metbot_jp 2017-10-13 10:11:12
RJAA/NRT:東京/成田(日本)
ウィンドシア
130100Z 03011KT 6000 -RA BR FEW005 BKN008 BKN035 15/14 Q1018 WS R34L TEMPO 4500 -RA BR

スポンサーリンク

どこかで天気が悪くなると呟く何か @metbot_jp 2017-10-13 09:11:25
RCSS/TSA:台北松山(台湾)
ウィンドシア
130006Z 08016G28KT 050V110 2500 -RA BR FEW012 BKN025 BKN040 25/23 Q1010 WS R10 NOSIG RMK A2984

どこかで天気が悪くなると呟く何か @metbot_jp 2017-10-13 08:41:23
RCTP/TPE:台湾桃園(台湾)
ウィンドシア
122330Z 05026G36KT 5000 -RA SCT008 BKN012 BKN030 24/22 Q1010 WS ALL RWY NOSIG RMK A2983

どこかで天気が悪くなると呟く何か @metbot_jp 2017-10-13 07:51:21
RCSS/TSA:台北松山(台湾)
ウィンドシア
122245Z 09014KT 9999 -RA SCT008 BKN020 BKN040 24/22 Q1010 WS R10 NOSIG RMK A2983

どこかで天気が悪くなると呟く何か @metbot_jp 2017-10-13 07:41:20
RJAA/NRT:東京/成田(日本)
ウィンドシア
122230Z 04017KT 9999 -RA FEW008 BKN012 BKN018 16/13 Q1017 WS R34R TEMPO FEW005 BKN008 RMK 1ST008 5SC012 7SC018 A3…

どこかで天気が悪くなると呟く何か @metbot_jp 2017-10-13 07:11:23
RCTP/TPE:台湾桃園(台湾)
ウィンドシア
122200Z 05024G34KT 4000 -RA SCT010 BKN015 BKN040 24/22 Q1009 WS ALL RWY TEMPO 3000 RA RMK A2981 RA AMT 1.2MM

どこかで天気が悪くなると呟く何か @metbot_jp 2017-10-13 06:11:24
RCTP/TPE:台湾桃園(台湾)
ウィンドシア
122100Z 05029G39KT 8000 -RA SCT012 BKN016 BKN040 24/22 Q1009 WS ALL RWY NOSIG RMK A2980 RA AMT 0.2MM

どこかで天気が悪くなると呟く何か @metbot_jp 2017-10-13 05:11:21
RCTP/TPE:台湾桃園(台湾)
ウィンドシア
122000Z 05027G37KT 9999 FEW012 BKN020 BKN060 25/23 Q1008 WS ALL RWY NOSIG RMK A2979

どこかで天気が悪くなると呟く何か @metbot_jp 2017-10-13 04:11:19
RCTP/TPE:台湾桃園(台湾)
ウィンドシア
121900Z 05027G38KT 9999 SCT010 BKN016 BKN050 25/23 Q1009 WS ALL RWY NOSIG RMK A2980

どこかで天気が悪くなると呟く何か @metbot_jp 2017-10-13 03:11:17
RCTP/TPE:台湾桃園(台湾)
ウィンドシア
121800Z 05025KT 9999 SCT010 BKN018 BKN050 25/23 Q1009 WS ALL RWY NOSIG RMK A2981

どこかで天気が悪くなると呟く何か @metbot_jp 2017-10-13 02:11:16
RCTP/TPE:台湾桃園(台湾)
ウィンドシア
121700Z 05026KT 9999 FEW008 BKN015 BKN030 25/23 Q1009 WS ALL RWY NOSIG RMK A2981

どこかで天気が悪くなると呟く何か @metbot_jp 2017-10-13 00:41:16
RCTP/TPE:台湾桃園(台湾)
ウィンドシア
121530Z 05028KT 9999 -RA FEW008 BKN015 BKN030 25/24 Q1010 WS ALL RWY NOSIG RMK A2985

どこかで天気が悪くなると呟く何か @metbot_jp 2017-10-12 23:46:15
RCSS/TSA:台北松山(台湾)
ウィンドシア
121436Z 07012G24KT 030V100 9999 -RA FEW006 BKN020 BKN045 27/23 Q1011 WS R10 NOSIG RMK A2987

どこかで天気が悪くなると呟く何か @metbot_jp 2017-10-12 23:16:17
RCTP/TPE:台湾桃園(台湾)
ウィンドシア
121408Z 07023G34KT 3500 RA FEW006 BKN012 BKN025 25/24 Q1011 WS ALL RWY NOSIG RMK A2987

どこかで天気が悪くなると呟く何か @metbot_jp 2017-10-12 22:11:14
RCTP/TPE:台湾桃園(台湾)
ウィンドシア
121300Z 06023G34KT 5000 -RA FEW005 BKN015 BKN030 25/24 Q1011 RERA WS ALL RWY NOSIG RMK A2987 RA AMT 1.8MM

どこかで天気が悪くなると呟く何か @metbot_jp 2017-10-12 21:11:14
RCTP/TPE:台湾桃園(台湾)
ウィンドシア
121200Z 06019KT 9999 -RA FEW008 BKN015 BKN030 26/24 Q1011 RERA WS ALL RWY TEMPO 5000 RMK A2986 RA AMT 0.6MM

どこかで天気が悪くなると呟く何か @metbot_jp 2017-10-12 21:01:15
RCSS/TSA:台北松山(台湾)
ウィンドシア
121152Z 08013G23KT 040V110 8000 -RA FEW007 SCT015 BKN035 27/24 Q1011 WS R10 TEMPO 5000 RA RMK A2986

どこかで天気が悪くなると呟く何か @metbot_jp 2017-10-12 20:11:12
RCTP/TPE:台湾桃園(台湾)
ウィンドシア
121100Z 06021G32KT 9999 -RA FEW008 BKN012 BKN050 26/24 Q1010 WS ALL RWY NOSIG RMK A2984 RA AMT 0.4MM

どこかで天気が悪くなると呟く何か @metbot_jp 2017-10-12 18:41:25
RCTP/TPE:台湾桃園(台湾)
ウィンドシア
120930Z 06019KT 7000 -RA FEW008 BKN012 BKN060 26/24 Q1010 WS ALL RWY NOSIG RMK A2983

どこかで天気が悪くなると呟く何か @metbot_jp 2017-10-12 18:11:24
RJAA/NRT:東京/成田(日本)
ウィンドシア
120900Z 09011KT 7000 FEW012 BKN020 22/19 Q1013 WS R16L TEMPO 4000 -SHRA BR RMK 1CU012 7CU020 A2991

どこかで天気が悪くなると呟く何か @metbot_jp 2017-10-12 17:16:23
RCTP/TPE:台湾桃園(台湾)
ウィンドシア
120806Z 05020KT 9999 VCSH FEW012 BKN020 BKN060 27/24 Q1009 WS R05L NOSIG RMK A2982

どこかで天気が悪くなると呟く何か @metbot_jp 2017-10-12 16:11:23
RCTP/TPE:台湾桃園(台湾)
ウィンドシア
120700Z 05022KT 9999 FEW012 BKN020 BKN050 27/25 Q1009 WS ALL RWY NOSIG RMK A2981

どこかで天気が悪くなると呟く何か @metbot_jp 2017-10-12 15:11:20
RCTP/TPE:台湾桃園(台湾)
ウィンドシア
120600Z 05021KT 9999 SCT008 BKN013 BKN025 27/25 Q1009 WS ALL RWY NOSIG RMK A2980

どこかで天気が悪くなると呟く何か @metbot_jp 2017-10-12 13:41:50
RCTP/TPE:台湾桃園(台湾)
ウィンドシア
120430Z 08013KT 040V100 3500 RA SCT005 BKN009 BKN018 25/24 Q1010 WS ALL RWY NOSIG RMK A2984

どこかで天気が悪くなると呟く何か @metbot_jp 2017-10-12 12:41:16
RCTP/TPE:台湾桃園(台湾)
ウィンドシア
120330Z 09015G25KT 2000 RA SCT005 BKN010 BKN025 25/25 Q1011 WS ALL RWY NOSIG RMK A2986

どこかで天気が悪くなると呟く何か @metbot_jp 2017-10-12 11:21:15
RCTP/TPE:台湾桃園(台湾)
ウィンドシア
120212Z 06015KT 5000 -RA FEW008 BKN009 BKN020 26/25 Q1011 WS R05L NOSIG RMK A2988

どこかで天気が悪くなると呟く何か @metbot_jp 2017-10-12 10:21:13
RCTP/TPE:台湾桃園(台湾)
ウィンドシア
120113Z 06017KT 3500 RA FEW008 BKN015 BKN030 26/25 Q1012 WS R05L TEMPO 1500 RMK A2989

どこかで天気が悪くなると呟く何か @metbot_jp 2017-10-12 09:21:12
RCTP/TPE:台湾桃園(台湾)
ウィンドシア
120014Z 05014KT 4500 -RA FEW009 BKN013 BKN035 26/25 Q1012 WS R05L NOSIG RMK A2989

どこかで天気が悪くなると呟く何か @metbot_jp 2017-10-12 07:26:21
RCTP/TPE:台湾桃園(台湾)
ウィンドシア
112216Z 06014KT 9999 FEW015 BKN030 BKN060 26/23 Q1012 WS R05L NOSIG RMK A2989

どこかで天気が悪くなると呟く何か @metbot_jp 2017-10-12 05:56:23
RCTP/TPE:台湾桃園(台湾)
ウィンドシア
112050Z 07009KT 9999 FEW015 BKN030 BKN060 25/22 Q1011 WS ALL RWY NOSIG RMK A2987

どこかで天気が悪くなると呟く何か @metbot_jp 2017-10-11 18:21:31
RCTP/TPE:台湾桃園(台湾)
ウィンドシア
110912Z 05020KT 9999 FEW016 SCT030 29/25 Q1010 WS R05R NOSIG RMK A2985

どこかで天気が悪くなると呟く何か @metbot_jp 2017-10-11 17:11:31
RCTP/TPE:台湾桃園(台湾)
ウィンドシア
110800Z 07020G30KT 9999 FEW020 SCT060 31/24 Q1010 WS ALL RWY NOSIG RMK FU IN APCH A2984

どこかで天気が悪くなると呟く何か @metbot_jp 2017-10-11 15:41:30
RCTP/TPE:台湾桃園(台湾)
ウィンドシア
110630Z 07023KT 9999 FEW020 SCT040 33/24 Q1009 WS ALL RWY NOSIG RMK A2981

どこかで天気が悪くなると呟く何か @metbot_jp 2017-10-11 15:21:30
RCSS/TSA:台北松山(台湾)
ウィンドシア
110611Z 08015KT 9999 FEW018 BKN035 BKN070 31/26 Q1010 WS R10 NOSIG RMK A2985

スポンサーリンク

どこかで天気が悪くなると呟く何か @metbot_jp 2017-10-11 14:16:22
RCTP/TPE:台湾桃園(台湾)
ウィンドシア
110505Z 07022KT 9999 FEW020 SCT035 34/24 Q1010 WS R05L NOSIG RMK A2984

どこかで天気が悪くなると呟く何か @metbot_jp 2017-10-11 11:46:17
RCSS/TSA:台北松山(台湾)
ウィンドシア
110238Z 09017KT 9999 FEW014 SCT030 32/25 Q1012 WS R10 NOSIG RMK A2991

どこかで天気が悪くなると呟く何か @metbot_jp 2017-10-11 11:41:17
RCTP/TPE:台湾桃園(台湾)
ウィンドシア
110234Z 07021G31KT 9999 FEW020 SCT080 33/24 Q1012 WS ALL RWY NOSIG RMK A2990
110233Z 07021G31KT 9999 FEW020 SCT080…

どこかで天気が悪くなると呟く何か @metbot_jp 2017-10-11 02:01:31
RCTP/TPE:台湾桃園(台湾)
ウィンドシア
101655Z 07014KT 9999 FEW020 29/24 Q1011 WS R05R NOSIG RMK A2986

どこかで天気が悪くなると呟く何か @metbot_jp 2017-10-10 23:21:17
RCTP/TPE:台湾桃園(台湾)
ウィンドシア
101413Z 07017KT 9999 FEW020 29/24 Q1012 WS R05R NOSIG RMK A2989

どこかで天気が悪くなると呟く何か @metbot_jp 2017-10-10 22:16:29
RCTP/TPE:台湾桃園(台湾)
ウィンドシア
101309Z 07018KT 9999 FEW020 29/24 Q1012 WS R05R NOSIG RMK A2989

どこかで天気が悪くなると呟く何か @metbot_jp 2017-10-10 19:41:11
RCTP/TPE:台湾桃園(台湾)
ウィンドシア
101030Z 07019KT 9999 FEW020 SCT200 30/25 Q1011 WS ALL RWY NOSIG RMK A2986

どこかで天気が悪くなると呟く何か @metbot_jp 2017-10-10 18:11:36
RCTP/TPE:台湾桃園(台湾)
ウィンドシア
100900Z 07021G31KT 9999 FEW020 SCT200 32/25 Q1010 WS ALL RWY NOSIG RMK A2984

どこかで天気が悪くなると呟く何か @metbot_jp 2017-10-10 16:41:24
RCTP/TPE:台湾桃園(台湾)
ウィンドシア
100730Z 08022G34KT 9999 FEW020 SCT200 34/25 Q1009 WS ALL RWY NOSIG RMK A2981

どこかで天気が悪くなると呟く何か @metbot_jp 2017-10-10 15:11:24
RCTP/TPE:台湾桃園(台湾)
ウィンドシア
100600Z 08024G34KT 9999 FEW020 SCT200 35/24 Q1009 WS ALL RWY NOSIG RMK A2982

どこかで天気が悪くなると呟く何か @metbot_jp 2017-10-10 14:11:21
RCTP/TPE:台湾桃園(台湾)
ウィンドシア
100500Z 08024KT 9999 FEW020 SCT200 35/24 Q1010 WS ALL RWY NOSIG RMK A2983

どこかで天気が悪くなると呟く何か @metbot_jp 2017-10-10 14:11:21
RCSS/TSA:台北松山(台湾)
ウィンドシア
100500Z 10017KT 9999 FEW010 SCT030 33/25 Q1012 WS R10 NOSIG RMK A2989

どこかで天気が悪くなると呟く何か @metbot_jp 2017-10-10 13:11:20
RCTP/TPE:台湾桃園(台湾)
ウィンドシア
100400Z 08026KT 9999 FEW015 BKN120 35/24 Q1011 WS R05R NOSIG RMK A2986

どこかで天気が悪くなると呟く何か @metbot_jp 2017-10-10 12:56:17
RCSS/TSA:台北松山(台湾)
ウィンドシア
100343Z 09014KT 9999 FEW015 SCT040 33/26 Q1012 WS R10 NOSIG RMK A2991

どこかで天気が悪くなると呟く何か @metbot_jp 2017-10-10 11:41:20
RCTP/TPE:台湾桃園(台湾)
ウィンドシア
100230Z 10024KT 9999 FEW020 SCT120 33/24 Q1012 WS ALL RWY NOSIG RMK A2989

どこかで天気が悪くなると呟く何か @metbot_jp 2017-10-10 11:41:19
RCSS/TSA:台北松山(台湾)
ウィンドシア
100234Z 10015KT 080V140 7000 -RA FEW012 SCT028 BKN045 31/25 Q1013 WS R10 NOSIG RMK A2992
100230Z 11014KT 080V140 9…

どこかで天気が悪くなると呟く何か @metbot_jp 2017-10-10 10:26:14
RCSS/TSA:台北松山(台湾)
ウィンドシア
100117Z 08017KT 6000 -RA FEW012 SCT028 30/25 Q1013 WS R10 NOSIG RMK A2993

どこかで天気が悪くなると呟く何か @metbot_jp 2017-10-10 10:26:13
RCTP/TPE:台湾桃園(台湾)
ウィンドシア
100120Z 08024KT 9999 FEW020 33/25 Q1012 WS R05R NOSIG RMK A2989

✩ヴィクター(JPN) @Victor170831jp 2017-10-10 08:15:37
ウィンドミルはわかんないがウィンドシアはわかる

どこかで天気が悪くなると呟く何か @metbot_jp 2017-10-10 07:56:20
RCTP/TPE:台湾桃園(台湾)
ウィンドシア
092247Z 07023KT 9999 FEW020 29/24 Q1011 WS R05L NOSIG RMK A2986

どこかで天気が悪くなると呟く何か @metbot_jp 2017-10-10 05:11:22
RCTP/TPE:台湾桃園(台湾)
ウィンドシア
092000Z 08023KT 9999 FEW020 29/23 Q1009 WS R05L NOSIG RMK A2982

どこかで天気が悪くなると呟く何か @metbot_jp 2017-10-10 03:56:18
RCTP/TPE:台湾桃園(台湾)
ウィンドシア
091847Z 08018KT 9999 FEW020 29/23 Q1010 WS R05L NOSIG RMK A2983

どこかで天気が悪くなると呟く何か @metbot_jp 2017-10-10 02:36:18
RCTP/TPE:台湾桃園(台湾)
ウィンドシア
091727Z 07019KT 9999 FEW020 29/24 Q1010 WS R05L NOSIG RMK A2984

どこかで天気が悪くなると呟く何か @metbot_jp 2017-10-09 20:21:21
RCTP/TPE:台湾桃園(台湾)
ウィンドシア
091113Z 08018G28KT 9999 FEW020 30/24 Q1011 WS R05R NOSIG RMK A2986

どこかで天気が悪くなると呟く何か @metbot_jp 2017-10-09 18:41:34
RCTP/TPE:台湾桃園(台湾)
ウィンドシア
090930Z 08026KT 9999 FEW020 SCT200 32/23 Q1009 WS ALL RWY NOSIG RMK A2981

どこかで天気が悪くなると呟く何か @metbot_jp 2017-10-09 17:41:24
RCTP/TPE:台湾桃園(台湾)
ウィンドシア
090830Z 09023KT 9999 FEW020 SCT200 33/23 Q1010 WS ALL RWY NOSIG RMK A2983

どこかで天気が悪くなると呟く何か @metbot_jp 2017-10-09 17:26:25
RCSS/TSA:台北松山(台湾)
ウィンドシア
090821Z 09016KT 9999 FEW025 32/24 Q1011 WS R10 NOSIG RMK A2986

どこかで天気が悪くなると呟く何か @metbot_jp 2017-10-09 16:11:28
RCTP/TPE:台湾桃園(台湾)
ウィンドシア
090700Z 09028G41KT 9999 FEW020 SCT200 34/24 Q1009 WS ALL RWY NOSIG RMK A2981

どこかで天気が悪くなると呟く何か @metbot_jp 2017-10-09 16:01:24
RCSS/TSA:台北松山(台湾)
ウィンドシア
090653Z 10018KT 9999 FEW020 SCT035 33/24 Q1011 WS R10 NOSIG RMK A2986

どこかで天気が悪くなると呟く何か @metbot_jp 2017-10-09 15:11:23
RCTP/TPE:台湾桃園(台湾)
ウィンドシア
090600Z 09028G40KT 9999 FEW020 SCT045 BKN220 34/24 Q1009 WS ALL RWY NOSIG RMK A2981

どこかで天気が悪くなると呟く何か @metbot_jp 2017-10-09 14:41:21
RCSS/TSA:台北松山(台湾)
ウィンドシア
090530Z 10022KT 9999 FEW018 SCT030 32/24 Q1011 WS R10 NOSIG RMK A2986

どこかで天気が悪くなると呟く何か @metbot_jp 2017-10-09 14:11:21
RCTP/TPE:台湾桃園(台湾)
ウィンドシア
090500Z 09027G38KT 9999 FEW020 SCT050 BKN220 35/24 Q1009 WS ALL RWY NOSIG RMK A2982

どこかで天気が悪くなると呟く何か @metbot_jp 2017-10-09 13:41:19
RCSS/TSA:台北松山(台湾)
ウィンドシア
090430Z 09020G30KT 9999 VCSH SCT025 SCT250 33/25 Q1011 WS R10 NOSIG RMK A2987

スポンサーリンク

どこかで天気が悪くなると呟く何か @metbot_jp 2017-10-09 13:31:20
RCKH/KHH:高雄(台湾)
ウィンドシア
090425Z 26011KT 230V290 9999 FEW018 BKN300 33/25 Q1009 WS R09 NOSIG RMK A2982

@

スポンサーリンク

▼ 関連項目 ▼
/

▼このスカイリムったー【ウィンドシア】のページを共有▼

▼ 系列用語集リンク ▼
TES:IV用語集/ TES:V用語集/ Fo3用語集/ FoNV用語集ログ/ 用語集横断検索
スカイリムったー